createdAt,value
2019-06-07T00:00:38.260Z,17.83
2019-06-07T00:01:26.612Z,17.99
2019-06-07T00:02:26.537Z,18.00
2019-06-07T00:03:30.098Z,17.92
2019-06-07T00:04:26.566Z,18.04
2019-06-07T00:05:26.531Z,18.11
2019-06-07T00:06:26.549Z,18.12
2019-06-07T00:07:26.548Z,18.14
2019-06-07T00:08:28.867Z,18.08
2019-06-07T00:09:26.544Z,18.12
2019-06-07T00:10:36.080Z,18.12
2019-06-07T00:11:26.585Z,18.08
2019-06-07T00:12:26.599Z,18.14
2019-06-07T00:13:26.553Z,18.13
2019-06-07T00:14:26.547Z,18.12
2019-06-07T00:15:29.049Z,18.04
2019-06-07T00:16:26.605Z,18.05
2019-06-07T00:17:26.554Z,18.07
2019-06-07T00:18:26.567Z,18.11
2019-06-07T00:19:26.535Z,18.10
2019-06-07T00:20:26.627Z,18.13
2019-06-07T00:22:12.747Z,18.09
2019-06-07T00:22:33.192Z,18.07
2019-06-07T00:23:26.593Z,18.11
2019-06-07T00:24:26.604Z,18.03
2019-06-07T00:25:26.556Z,17.99
2019-06-07T00:26:26.596Z,18.02
2019-06-07T00:27:26.570Z,18.04
2019-06-07T00:28:26.599Z,18.03
2019-06-07T00:29:26.615Z,18.01
2019-06-07T00:30:41.073Z,17.96
2019-06-07T00:31:26.613Z,17.79
2019-06-07T00:32:26.581Z,17.76
2019-06-07T00:33:26.616Z,17.76
2019-06-07T00:34:26.547Z,17.80
2019-06-07T00:35:26.527Z,17.66
2019-06-07T00:36:26.565Z,17.78
2019-06-07T00:37:26.640Z,17.76
2019-06-07T00:38:26.622Z,17.84
2019-06-07T00:39:26.581Z,17.71
2019-06-07T00:40:31.776Z,17.79
2019-06-07T00:41:26.595Z,17.80
2019-06-07T00:42:26.560Z,17.61
2019-06-07T00:43:28.586Z,17.80
2019-06-07T00:44:26.646Z,17.94
2019-06-07T00:45:26.633Z,18.01
2019-06-07T00:46:26.614Z,17.80
2019-06-07T00:47:26.679Z,17.89
2019-06-07T00:48:32.394Z,18.01
2019-06-07T00:49:39.869Z,18.05
2019-06-07T00:50:26.633Z,18.06
2019-06-07T00:51:26.698Z,18.01
2019-06-07T00:53:13.205Z,18.08
2019-06-07T00:53:31.797Z,18.12
2019-06-07T00:54:26.635Z,18.11
2019-06-07T00:55:27.714Z,17.94
2019-06-07T00:56:26.702Z,17.71
2019-06-07T00:57:26.698Z,17.80
2019-06-07T00:58:27.898Z,17.98
2019-06-07T00:59:29.587Z,18.06
2019-06-07T01:00:26.646Z,18.11
2019-06-07T01:01:26.750Z,18.17
2019-06-07T01:02:31.309Z,17.95
2019-06-07T01:03:26.727Z,17.89
2019-06-07T01:04:27.214Z,18.00
2019-06-07T01:05:30.981Z,18.10
2019-06-07T01:06:26.693Z,18.10
2019-06-07T01:07:26.661Z,18.12
2019-06-07T01:08:29.871Z,18.13
2019-06-07T01:09:26.654Z,18.20
2019-06-07T01:10:51.663Z,18.19
2019-06-07T01:11:26.695Z,18.15
2019-06-07T01:12:27.012Z,18.18
2019-06-07T01:13:27.109Z,18.07
2019-06-07T01:14:28.381Z,18.13
2019-06-07T01:15:29.153Z,18.20
2019-06-07T01:16:26.689Z,18.24
2019-06-07T01:17:36.291Z,18.24
2019-06-07T01:18:37.755Z,18.24
2019-06-07T01:19:27.761Z,18.22
2019-06-07T01:20:26.865Z,18.18
2019-06-07T01:21:29.326Z,18.14
2019-06-07T01:22:29.001Z,18.15
2019-06-07T01:24:04.742Z,18.16
2019-06-07T01:24:28.055Z,18.09
2019-06-07T01:25:28.794Z,18.05
2019-06-07T01:26:29.454Z,18.04
2019-06-07T01:27:26.668Z,17.93
2019-06-07T01:28:27.182Z,17.93
2019-06-07T01:29:29.426Z,17.99
2019-06-07T01:30:26.898Z,17.96
2019-06-07T01:31:30.520Z,17.93
2019-06-07T01:32:27.163Z,17.93
2019-06-07T01:33:38.816Z,17.84
2019-06-07T01:34:26.989Z,17.84
2019-06-07T01:35:26.759Z,17.81
2019-06-07T01:36:29.560Z,17.75
2019-06-07T01:37:27.980Z,17.59
2019-06-07T01:38:26.864Z,17.66
2019-06-07T01:39:29.794Z,17.72
2019-06-07T01:40:29.696Z,17.73
2019-06-07T01:41:28.446Z,17.70
2019-06-07T01:42:29.441Z,17.71
2019-06-07T01:43:28.670Z,17.78
2019-06-07T01:44:28.107Z,17.77
2019-06-07T01:45:30.622Z,17.72
2019-06-07T01:46:26.920Z,17.66
2019-06-07T01:47:28.750Z,17.62
2019-06-07T01:48:44.575Z,17.48
2019-06-07T01:49:28.156Z,17.38
2019-06-07T01:50:27.273Z,17.45
2019-06-07T01:51:27.907Z,17.34
2019-06-07T01:52:26.821Z,17.43
2019-06-07T01:53:29.103Z,17.49
2019-06-07T01:54:52.141Z,17.46
2019-06-07T01:55:29.839Z,17.41
2019-06-07T01:56:29.519Z,17.29
2019-06-07T01:57:38.025Z,17.23
2019-06-07T01:58:29.059Z,17.20
2019-06-07T01:59:28.564Z,17.17
2019-06-07T02:00:31.479Z,17.21
2019-06-07T02:01:34.529Z,17.23
2019-06-07T02:02:30.040Z,17.13
2019-06-07T02:03:32.265Z,17.22
2019-06-07T02:04:29.376Z,17.11
2019-06-07T02:05:30.529Z,17.14
2019-06-07T02:06:27.929Z,17.17
2019-06-07T02:07:30.366Z,17.19
2019-06-07T02:08:33.568Z,17.13
2019-06-07T02:09:29.880Z,17.11
2019-06-07T02:10:30.302Z,17.21
2019-06-07T02:11:28.770Z,17.20
2019-06-07T02:12:37.599Z,17.15
2019-06-07T02:13:28.892Z,17.13
2019-06-07T02:14:29.891Z,17.09
2019-06-07T02:15:30.702Z,17.03
2019-06-07T02:16:30.408Z,16.96
2019-06-07T02:17:29.744Z,16.94
2019-06-07T02:18:29.151Z,16.89
2019-06-07T02:19:27.548Z,16.88
2019-06-07T02:20:31.449Z,16.79
2019-06-07T02:21:30.448Z,16.78
2019-06-07T02:22:29.456Z,16.76
2019-06-07T02:23:29.199Z,16.67
2019-06-07T02:24:28.861Z,16.66
2019-06-07T02:25:39.308Z,16.66
2019-06-07T02:26:29.700Z,16.60
2019-06-07T02:27:27.488Z,16.53
2019-06-07T02:28:34.650Z,16.52
2019-06-07T02:29:30.279Z,16.56
2019-06-07T02:30:40.473Z,16.50
2019-06-07T02:31:28.699Z,16.44
2019-06-07T02:32:29.730Z,16.54
2019-06-07T02:33:28.947Z,16.55
2019-06-07T02:34:28.084Z,16.57
2019-06-07T02:35:34.744Z,16.48
2019-06-07T02:36:30.501Z,16.46
2019-06-07T02:37:27.744Z,16.43
2019-06-07T02:38:29.687Z,16.41
2019-06-07T02:39:28.895Z,16.40
2019-06-07T02:40:31.971Z,16.44
2019-06-07T02:41:33.330Z,16.36
2019-06-07T02:42:29.491Z,16.24
2019-06-07T02:43:27.551Z,16.17
2019-06-07T02:44:30.270Z,16.32
2019-06-07T02:45:29.892Z,16.41
2019-06-07T02:46:35.302Z,16.38
2019-06-07T02:47:28.686Z,16.38
2019-06-07T02:48:27.925Z,16.39
2019-06-07T02:49:28.965Z,16.36
2019-06-07T02:50:29.211Z,16.41
2019-06-07T02:51:28.081Z,16.42
2019-06-07T02:52:29.312Z,16.30
2019-06-07T02:53:27.223Z,16.12
2019-06-07T02:54:29.433Z,16.18
2019-06-07T02:55:29.596Z,16.33
2019-06-07T02:56:39.192Z,16.39
2019-06-07T02:57:28.538Z,16.41
2019-06-07T02:58:31.155Z,16.46
2019-06-07T02:59:47.225Z,16.45
2019-06-07T03:00:51.423Z,16.41
2019-06-07T03:01:28.543Z,16.41
2019-06-07T03:02:31.032Z,16.40
2019-06-07T03:03:28.897Z,16.30
2019-06-07T03:04:28.916Z,16.45
2019-06-07T03:05:27.387Z,16.41
2019-06-07T03:06:29.773Z,16.45
2019-06-07T03:07:28.311Z,16.42
2019-06-07T03:08:28.251Z,16.27
2019-06-07T03:09:28.845Z,16.20
2019-06-07T03:10:28.570Z,16.20
2019-06-07T03:11:28.103Z,16.27
2019-06-07T03:12:28.966Z,16.36
2019-06-07T03:13:28.923Z,16.46
2019-06-07T03:14:26.791Z,16.60
2019-06-07T03:15:37.430Z,16.56
2019-06-07T03:16:26.776Z,16.57
2019-06-07T03:17:27.166Z,16.58
2019-06-07T03:18:28.649Z,16.64
2019-06-07T03:19:26.854Z,16.62
2019-06-07T03:20:27.614Z,16.72
2019-06-07T03:21:28.159Z,16.59
2019-06-07T03:22:26.809Z,16.66
2019-06-07T03:23:28.704Z,16.71
2019-06-07T03:24:31.015Z,16.74
2019-06-07T03:25:28.120Z,16.76
2019-06-07T03:26:27.620Z,16.73
2019-06-07T03:27:38.891Z,16.64
2019-06-07T03:28:27.630Z,16.66
2019-06-07T03:29:28.840Z,16.76
2019-06-07T03:30:39.844Z,16.79
2019-06-07T03:31:28.490Z,16.66
2019-06-07T03:32:31.996Z,16.71
2019-06-07T03:33:26.907Z,16.80
2019-06-07T03:34:32.173Z,16.80
2019-06-07T03:35:28.473Z,16.72
2019-06-07T03:36:27.547Z,16.74
2019-06-07T03:37:28.070Z,16.74
2019-06-07T03:38:27.729Z,16.78
2019-06-07T03:39:28.417Z,16.85
2019-06-07T03:40:26.823Z,16.88
2019-06-07T03:41:29.300Z,16.88
2019-06-07T03:42:26.803Z,16.89
2019-06-07T03:43:27.405Z,16.89
2019-06-07T03:44:28.659Z,16.91
2019-06-07T03:45:28.610Z,16.92
2019-06-07T03:46:27.320Z,16.97
2019-06-07T03:47:30.602Z,17.01
2019-06-07T03:48:28.437Z,17.01
2019-06-07T03:49:27.922Z,17.02
2019-06-07T03:50:30.584Z,16.82
2019-06-07T03:51:27.074Z,16.51
2019-06-07T03:52:27.453Z,16.65
2019-06-07T03:53:30.487Z,16.68
2019-06-07T03:54:27.234Z,16.79
2019-06-07T03:55:27.819Z,16.99
2019-06-07T03:56:28.319Z,17.10
2019-06-07T03:57:28.656Z,17.12
2019-06-07T03:58:32.580Z,17.21
2019-06-07T03:59:28.410Z,17.28
2019-06-07T04:00:29.603Z,17.32
2019-06-07T04:01:28.601Z,17.44
2019-06-07T04:02:27.850Z,17.49
2019-06-07T04:03:36.086Z,17.58
2019-06-07T04:04:27.357Z,17.43
2019-06-07T04:05:28.740Z,17.50
2019-06-07T04:06:28.991Z,17.34
2019-06-07T04:07:28.950Z,17.19
2019-06-07T04:08:28.187Z,17.13
2019-06-07T04:09:28.588Z,17.38
2019-06-07T04:10:45.762Z,17.54
2019-06-07T04:11:27.814Z,17.62
2019-06-07T04:12:28.394Z,17.73
2019-06-07T04:13:28.916Z,17.83
2019-06-07T04:14:29.334Z,17.87
2019-06-07T04:15:27.804Z,17.90
2019-06-07T04:16:28.818Z,17.91
2019-06-07T04:17:27.408Z,17.73
2019-06-07T04:18:27.930Z,17.76
2019-06-07T04:19:28.735Z,17.83
2019-06-07T04:20:29.183Z,17.77
2019-06-07T04:21:29.508Z,17.84
2019-06-07T04:22:28.751Z,17.73
2019-06-07T04:23:29.966Z,17.89
2019-06-07T04:24:26.807Z,18.01
2019-06-07T04:25:26.841Z,18.11
2019-06-07T04:26:30.910Z,18.16
2019-06-07T04:27:26.849Z,18.19
2019-06-07T04:29:15.621Z,18.27
2019-06-07T04:29:47.329Z,18.40
2019-06-07T04:30:26.860Z,18.48
2019-06-07T04:31:26.827Z,18.45
2019-06-07T04:32:26.839Z,18.49
2019-06-07T04:33:26.852Z,18.52
2019-06-07T04:34:26.845Z,18.58
2019-06-07T04:35:26.842Z,18.63
2019-06-07T04:36:41.723Z,18.61
2019-06-07T04:37:26.836Z,18.75
2019-06-07T04:38:26.843Z,18.80
2019-06-07T04:39:26.856Z,18.86
2019-06-07T04:40:27.836Z,18.87
2019-06-07T04:41:26.853Z,18.91
2019-06-07T04:42:26.915Z,19.07
2019-06-07T04:43:26.891Z,19.04
2019-06-07T04:44:26.849Z,19.05
2019-06-07T04:45:33.948Z,19.02
2019-06-07T04:46:26.905Z,19.13
2019-06-07T04:47:26.834Z,19.13
2019-06-07T04:48:26.845Z,19.21
2019-06-07T04:49:26.952Z,19.29
2019-06-07T04:50:26.913Z,19.45
2019-06-07T04:51:26.893Z,19.49
2019-06-07T04:52:26.905Z,19.52
2019-06-07T04:53:26.856Z,19.63
2019-06-07T04:54:26.846Z,19.67
2019-06-07T04:55:26.887Z,19.79
2019-06-07T04:56:26.917Z,19.92
2019-06-07T04:57:26.860Z,19.90
2019-06-07T04:58:26.862Z,19.96
2019-06-07T05:00:04.177Z,19.94
2019-06-07T05:00:46.934Z,19.93
2019-06-07T05:01:29.137Z,19.98
2019-06-07T05:02:26.944Z,20.10
2019-06-07T05:03:26.926Z,20.07
2019-06-07T05:04:26.853Z,20.04
2019-06-07T05:05:26.874Z,20.37
2019-06-07T05:06:26.889Z,20.69
2019-06-07T05:07:26.943Z,20.73
2019-06-07T05:08:28.413Z,20.71
2019-06-07T05:09:26.858Z,20.84
2019-06-07T05:10:26.866Z,20.87
2019-06-07T05:11:26.872Z,20.92
2019-06-07T05:12:26.874Z,21.00
2019-06-07T05:13:26.930Z,21.10
2019-06-07T05:14:26.881Z,21.40
2019-06-07T05:15:26.878Z,21.25
2019-06-07T05:16:26.938Z,21.52
2019-06-07T05:17:26.894Z,21.50
2019-06-07T05:18:26.881Z,21.60
2019-06-07T05:19:26.943Z,21.50
2019-06-07T05:20:26.917Z,21.48
2019-06-07T05:21:48.213Z,21.28
2019-06-07T05:22:26.939Z,21.26
2019-06-07T05:24:02.470Z,21.41
2019-06-07T05:24:26.901Z,21.32
2019-06-07T05:25:26.909Z,21.12
2019-06-07T05:26:26.956Z,21.12
2019-06-07T05:27:26.921Z,21.11
2019-06-07T05:28:26.882Z,21.16
2019-06-07T05:29:26.892Z,21.23
2019-06-07T05:30:58.497Z,21.47
2019-06-07T05:31:26.955Z,21.51
2019-06-07T05:32:26.890Z,21.84
2019-06-07T05:33:26.887Z,21.93
2019-06-07T05:34:26.900Z,21.88
2019-06-07T05:35:26.980Z,21.89
2019-06-07T05:36:27.016Z,21.95
2019-06-07T05:37:26.929Z,22.00
2019-06-07T05:38:26.888Z,22.24
2019-06-07T05:39:26.876Z,22.23
2019-06-07T05:40:26.884Z,22.05
2019-06-07T05:41:26.921Z,21.99
2019-06-07T05:42:26.872Z,21.90
2019-06-07T05:43:26.975Z,21.97
2019-06-07T05:44:27.127Z,21.89
2019-06-07T05:45:26.912Z,20.89
2019-06-07T05:46:26.990Z,21.09
2019-06-07T05:47:26.930Z,21.25
2019-06-07T05:48:27.012Z,21.39
2019-06-07T05:49:26.894Z,21.54
2019-06-07T05:50:38.508Z,21.73
2019-06-07T05:51:26.944Z,21.82
2019-06-07T05:52:26.977Z,21.88
2019-06-07T05:53:26.915Z,22.04
2019-06-07T05:54:26.903Z,22.22
2019-06-07T05:55:26.934Z,22.34
2019-06-07T05:56:26.958Z,22.60
2019-06-07T05:57:26.962Z,22.83
2019-06-07T05:58:27.186Z,23.05
2019-06-07T05:59:26.924Z,23.28
2019-06-07T06:00:26.910Z,23.43
2019-06-07T06:01:42.847Z,23.49
2019-06-07T06:02:26.930Z,23.38
2019-06-07T06:03:27.175Z,23.30
2019-06-07T06:04:26.939Z,23.19
2019-06-07T06:05:34.558Z,23.20
2019-06-07T06:06:26.944Z,23.12
2019-06-07T06:07:26.937Z,23.03
2019-06-07T06:08:26.952Z,22.98
2019-06-07T06:09:26.948Z,22.97
2019-06-07T06:10:27.004Z,22.83
2019-06-07T06:11:43.434Z,22.14
2019-06-07T06:12:35.335Z,22.24
2019-06-07T06:13:26.966Z,22.28
2019-06-07T06:14:26.960Z,22.29
2019-06-07T06:15:41.593Z,22.38
2019-06-07T06:16:26.984Z,22.51
2019-06-07T06:17:26.929Z,22.43
2019-06-07T06:18:26.940Z,22.49
2019-06-07T06:19:27.478Z,22.48
2019-06-07T06:20:32.863Z,22.56
2019-06-07T06:21:26.928Z,22.67
2019-06-07T06:22:27.011Z,22.73
2019-06-07T06:23:27.137Z,22.74
2019-06-07T06:24:26.994Z,22.79
2019-06-07T06:25:32.962Z,22.81
2019-06-07T06:26:26.952Z,22.69
2019-06-07T06:28:27.340Z,22.24
2019-06-07T06:29:26.940Z,22.09
2019-06-07T06:30:26.983Z,22.21
2019-06-07T06:31:26.991Z,22.26
2019-06-07T06:32:46.477Z,22.10
2019-06-07T06:33:34.218Z,21.87
2019-06-07T06:34:27.010Z,21.99
2019-06-07T06:35:26.975Z,22.24
2019-06-07T06:36:26.937Z,22.33
2019-06-07T06:37:27.005Z,22.49
2019-06-07T06:38:26.958Z,22.60
2019-06-07T06:39:26.945Z,22.63
2019-06-07T06:40:27.060Z,22.62
2019-06-07T06:41:27.004Z,22.48
2019-06-07T06:42:26.957Z,22.31
2019-06-07T06:43:27.021Z,22.33
2019-06-07T06:44:26.981Z,22.32
2019-06-07T06:45:26.994Z,22.39
2019-06-07T06:46:38.869Z,22.47
2019-06-07T06:47:26.993Z,22.57
2019-06-07T06:48:26.985Z,22.54
2019-06-07T06:49:26.980Z,22.70
2019-06-07T06:50:27.013Z,22.78
2019-06-07T06:51:26.974Z,22.69
2019-06-07T06:52:27.029Z,22.57
2019-06-07T06:53:27.022Z,22.48
2019-06-07T06:54:40.254Z,22.67
2019-06-07T06:55:27.032Z,22.81
2019-06-07T06:56:27.036Z,23.03
2019-06-07T06:57:27.867Z,23.03
2019-06-07T06:58:27.024Z,22.95
2019-06-07T06:59:38.568Z,22.97
2019-06-07T07:00:43.153Z,23.03
2019-06-07T07:01:27.017Z,23.09
2019-06-07T07:02:27.024Z,23.39
2019-06-07T07:04:01.235Z,23.67
2019-06-07T07:04:27.127Z,23.63
2019-06-07T07:05:26.996Z,23.91
2019-06-07T07:06:27.226Z,24.39
2019-06-07T07:07:27.297Z,24.82
2019-06-07T07:08:26.984Z,25.64
2019-06-07T07:09:27.037Z,26.48
2019-06-07T07:10:27.036Z,26.95
2019-06-07T07:11:26.997Z,27.78
2019-06-07T07:12:27.011Z,25.25
2019-06-07T07:13:27.075Z,22.93
2019-06-07T07:14:26.985Z,22.33
2019-06-07T07:15:27.005Z,22.67
2019-06-07T07:16:27.010Z,23.21
2019-06-07T07:17:47.523Z,23.73
2019-06-07T07:18:27.009Z,24.19
2019-06-07T07:32:26.051Z,23.77
2019-06-07T07:33:26.014Z,23.87
2019-06-07T07:34:34.372Z,24.02
2019-06-07T07:35:26.003Z,23.93
2019-06-07T07:38:26.016Z,23.64
2019-06-07T07:39:26.073Z,22.66
2019-06-07T07:40:56.939Z,22.82
2019-06-07T07:41:26.007Z,22.80
2019-06-07T07:44:26.042Z,22.41
2019-06-07T07:45:26.012Z,22.42
2019-06-07T07:46:29.767Z,22.56
2019-06-07T07:47:26.050Z,22.64
2019-06-07T07:50:26.073Z,22.25
2019-06-07T07:51:26.020Z,22.06
2019-06-07T07:52:26.017Z,21.89
2019-06-07T07:53:45.019Z,21.88
2019-06-07T07:56:26.059Z,22.21
2019-06-07T07:57:26.034Z,22.53
2019-06-07T07:58:26.029Z,22.66
2019-06-07T07:59:41.102Z,22.88
2019-06-07T08:02:26.046Z,23.20
2019-06-07T08:03:26.047Z,23.02
2019-06-07T08:05:12.007Z,23.07
2019-06-07T08:05:40.004Z,22.99
2019-06-07T08:08:26.067Z,23.55
2019-06-07T08:09:26.093Z,23.75
2019-06-07T08:10:26.121Z,23.69
2019-06-07T08:11:26.044Z,23.88
2019-06-07T08:14:26.056Z,23.86
2019-06-07T08:15:26.072Z,23.65
2019-06-07T08:16:26.051Z,23.55
2019-06-07T08:17:26.052Z,23.77
2019-06-07T08:20:26.063Z,23.42
2019-06-07T08:21:26.984Z,23.69
2019-06-07T08:22:26.047Z,23.86
2019-06-07T08:23:26.070Z,23.91
2019-06-07T08:26:26.058Z,24.05
2019-06-07T08:27:26.932Z,24.11
2019-06-07T08:28:26.051Z,24.07
2019-06-07T08:29:26.093Z,24.23
2019-06-07T08:32:26.054Z,24.97
2019-06-07T08:33:26.934Z,25.02
2019-06-07T08:34:26.064Z,25.16
2019-06-07T08:38:33.834Z,25.89
2019-06-07T08:39:26.134Z,25.75
2019-06-07T08:40:26.074Z,25.73
2019-06-07T08:41:26.123Z,25.67
2019-06-07T08:44:26.093Z,25.88
2019-06-07T08:45:26.087Z,26.18
2019-06-07T08:46:26.071Z,26.42
2019-06-07T08:47:26.110Z,26.58
2019-06-07T08:50:26.130Z,27.25
2019-06-07T08:51:26.096Z,27.56
2019-06-07T08:52:26.098Z,27.65
2019-06-07T08:53:26.091Z,27.89
2019-06-07T08:56:26.147Z,28.43
2019-06-07T08:57:26.094Z,28.75
2019-06-07T08:58:26.092Z,28.59
2019-06-07T08:59:26.130Z,28.96
2019-06-07T09:02:26.140Z,29.33
2019-06-07T09:03:26.095Z,29.38
2019-06-07T09:04:26.121Z,29.45
2019-06-07T09:05:26.104Z,28.88
2019-06-07T09:08:29.755Z,28.85
2019-06-07T09:09:26.099Z,29.28
2019-06-07T09:10:26.114Z,29.54
2019-06-07T09:11:26.272Z,29.94
2019-06-07T09:14:26.136Z,30.19
2019-06-07T09:15:26.115Z,29.77
2019-06-07T09:16:26.110Z,28.55
2019-06-07T09:17:26.113Z,29.26
2019-06-07T09:20:35.875Z,28.87
2019-06-07T09:21:26.165Z,28.80
2019-06-07T09:22:26.151Z,28.64
2019-06-07T09:23:26.136Z,28.80
2019-06-07T09:26:26.165Z,28.45
2019-06-07T09:27:26.126Z,28.14
2019-06-07T09:28:26.121Z,27.48
2019-06-07T09:29:26.150Z,27.01
2019-06-07T09:32:26.103Z,28.50
2019-06-07T09:33:26.131Z,28.85
2019-06-07T09:34:26.245Z,28.90
2019-06-07T09:35:26.156Z,28.79
2019-06-07T09:38:26.799Z,27.96
2019-06-07T09:39:26.125Z,27.68
2019-06-07T09:40:27.894Z,27.93
2019-06-07T09:41:46.151Z,28.26
2019-06-07T09:44:26.684Z,27.82
2019-06-07T09:45:26.197Z,27.65
2019-06-07T09:46:26.151Z,27.50
2019-06-07T09:47:32.193Z,27.76
2019-06-07T09:50:26.127Z,28.45
2019-06-07T09:51:26.190Z,28.80
2019-06-07T09:52:26.188Z,29.08
2019-06-07T09:53:26.153Z,29.35
2019-06-07T09:55:03.340Z,28.41
2019-06-07T09:56:26.161Z,28.33
2019-06-07T09:57:26.155Z,27.83
2019-06-07T09:58:51.784Z,28.28
2019-06-07T09:59:26.178Z,26.69
2019-06-07T10:02:26.187Z,26.19
2019-06-07T10:03:26.219Z,26.95
2019-06-07T10:04:31.035Z,26.14
2019-06-07T10:05:26.155Z,27.10
2019-06-07T10:09:42.628Z,26.19
2019-06-07T10:10:08.630Z,25.31
2019-06-07T10:11:26.176Z,25.72
2019-06-07T10:14:26.188Z,28.49
2019-06-07T10:15:26.176Z,28.84
2019-06-07T10:16:26.168Z,29.02
2019-06-07T10:17:26.223Z,28.97
2019-06-07T10:20:26.214Z,29.83
2019-06-07T10:21:26.199Z,30.41
2019-06-07T10:22:26.178Z,29.20
2019-06-07T10:23:26.198Z,28.70
2019-06-07T10:26:26.189Z,29.60
2019-06-07T10:27:26.256Z,29.75
2019-06-07T10:28:26.182Z,29.86
2019-06-07T10:29:26.205Z,30.36
2019-06-07T10:32:26.181Z,31.11
2019-06-07T10:33:26.205Z,30.74
2019-06-07T10:34:26.181Z,29.82
2019-06-07T10:35:26.238Z,30.79
2019-06-07T10:38:26.244Z,30.51
2019-06-07T10:39:26.214Z,30.34
2019-06-07T10:40:26.204Z,29.87
2019-06-07T10:41:26.182Z,27.58
2019-06-07T10:44:26.205Z,28.49
2019-06-07T10:45:26.204Z,28.90
2019-06-07T10:46:26.214Z,28.66
2019-06-07T10:47:26.297Z,27.75
2019-06-07T10:50:26.267Z,29.13
2019-06-07T10:51:26.249Z,29.44
2019-06-07T10:52:26.215Z,30.39
2019-06-07T10:53:26.272Z,31.38
2019-06-07T10:56:26.256Z,33.57
2019-06-07T10:57:26.246Z,32.57
2019-06-07T10:58:26.223Z,31.41
2019-06-07T10:59:26.266Z,31.00
2019-06-07T11:02:26.244Z,31.47
2019-06-07T11:03:26.245Z,32.08
2019-06-07T11:04:26.221Z,32.20
2019-06-07T11:05:26.209Z,31.84
2019-06-07T11:08:26.267Z,29.87
2019-06-07T11:09:26.299Z,29.86
2019-06-07T11:10:26.235Z,29.98
2019-06-07T11:11:26.273Z,30.01
2019-06-07T11:14:26.282Z,28.07
2019-06-07T11:15:26.326Z,27.64
2019-06-07T11:16:26.251Z,26.80
2019-06-07T11:17:26.299Z,28.33
2019-06-07T11:20:26.292Z,28.76
2019-06-07T11:21:26.257Z,28.91
2019-06-07T11:22:26.250Z,29.44
2019-06-07T11:23:26.263Z,30.26
2019-06-07T11:26:26.263Z,28.52
2019-06-07T11:27:26.457Z,28.57
2019-06-07T11:28:26.268Z,28.15
2019-06-07T11:29:26.237Z,27.27
2019-06-07T11:32:26.300Z,28.94
2019-06-07T11:33:26.329Z,27.74
2019-06-07T11:34:26.265Z,28.39
2019-06-07T11:35:26.315Z,29.35
2019-06-07T11:38:26.271Z,28.28
2019-06-07T11:39:26.345Z,27.97
2019-06-07T11:40:34.386Z,29.18
2019-06-07T11:41:26.272Z,29.82
2019-06-07T11:44:26.329Z,29.48
2019-06-07T11:45:26.363Z,28.88
2019-06-07T11:46:26.273Z,29.60
2019-06-07T11:47:26.294Z,30.06
2019-06-07T11:50:26.288Z,29.74
2019-06-07T11:51:26.272Z,29.87
2019-06-07T11:52:26.289Z,29.70
2019-06-07T11:53:26.295Z,28.97
2019-06-07T11:56:26.294Z,30.10
2019-06-07T11:57:26.291Z,29.69
2019-06-07T11:58:26.305Z,29.88
2019-06-07T11:59:26.283Z,30.31
2019-06-07T12:02:26.338Z,31.65
2019-06-07T12:03:26.361Z,31.51
2019-06-07T12:04:34.514Z,30.87
2019-06-07T12:05:26.309Z,31.44
2019-06-07T12:08:26.340Z,30.05
2019-06-07T12:09:28.108Z,28.54
2019-06-07T12:10:26.315Z,28.90
2019-06-07T12:11:26.355Z,29.04
2019-06-07T12:14:26.355Z,28.89
2019-06-07T12:15:26.374Z,29.22
2019-06-07T12:16:26.317Z,28.97
2019-06-07T12:17:26.363Z,29.95
2019-06-07T12:20:26.313Z,29.62
2019-06-07T12:21:26.343Z,29.68
2019-06-07T12:22:26.328Z,29.46
2019-06-07T12:23:26.368Z,29.70
2019-06-07T12:26:26.369Z,29.76
2019-06-07T12:27:26.390Z,29.03
2019-06-07T12:28:26.364Z,29.65
2019-06-07T12:29:26.329Z,29.58
2019-06-07T12:32:26.386Z,30.73
2019-06-07T12:33:26.388Z,30.73
2019-06-07T12:34:26.346Z,31.43
2019-06-07T12:35:26.381Z,32.12
2019-06-07T12:38:26.345Z,30.61
2019-06-07T12:39:26.421Z,28.98
2019-06-07T12:40:31.854Z,29.64
2019-06-07T12:41:26.356Z,29.70
2019-06-07T12:44:26.391Z,29.49
2019-06-07T12:45:43.627Z,29.98
2019-06-07T12:46:28.505Z,31.11
2019-06-07T12:47:26.386Z,32.35
2019-06-07T12:50:41.624Z,34.83
2019-06-07T12:51:26.364Z,35.68
2019-06-07T12:52:26.373Z,35.55
2019-06-07T12:53:28.108Z,32.04
2019-06-07T12:56:26.404Z,31.48
2019-06-07T12:57:26.366Z,31.83
2019-06-07T12:58:34.707Z,32.04
2019-06-07T12:59:26.395Z,31.31
2019-06-07T13:02:26.382Z,31.01
2019-06-07T13:03:26.399Z,30.56
2019-06-07T13:04:27.766Z,31.70
2019-06-07T13:05:27.898Z,32.11
2019-06-07T13:08:26.416Z,30.94
2019-06-07T13:09:26.398Z,30.96
2019-06-07T13:10:26.411Z,32.10
2019-06-07T13:11:29.513Z,32.29
2019-06-07T13:14:26.473Z,31.20
2019-06-07T13:15:26.398Z,28.80
2019-06-07T13:16:26.400Z,30.10
2019-06-07T13:17:26.431Z,31.42
2019-06-07T13:20:26.380Z,29.66
2019-06-07T13:21:26.400Z,30.43
2019-06-07T13:22:26.393Z,30.66
2019-06-07T13:23:26.392Z,31.49
2019-06-07T13:26:26.395Z,33.05
2019-06-07T13:27:26.431Z,33.83
2019-06-07T13:28:26.439Z,33.71
2019-06-07T13:29:29.603Z,33.44
2019-06-07T13:32:26.428Z,31.80
2019-06-07T13:33:29.795Z,31.89
2019-06-07T13:34:26.418Z,32.46
2019-06-07T13:35:29.416Z,32.46
2019-06-07T13:38:26.447Z,32.23
2019-06-07T13:39:29.290Z,33.22
2019-06-07T13:40:26.437Z,31.50
2019-06-07T13:41:36.845Z,32.38
2019-06-07T13:44:26.446Z,29.61
2019-06-07T13:45:26.442Z,29.63
2019-06-07T13:46:27.163Z,30.89
2019-06-07T13:47:27.494Z,31.44
2019-06-07T13:50:26.431Z,31.68
2019-06-07T13:51:27.984Z,31.98
2019-06-07T13:52:26.431Z,32.26
2019-06-07T13:53:26.479Z,32.20
2019-06-07T13:56:26.485Z,30.45
2019-06-07T13:57:26.507Z,31.60
2019-06-07T13:58:26.525Z,32.48
2019-06-07T13:59:26.538Z,32.03
2019-06-07T14:02:27.560Z,30.58
2019-06-07T14:03:28.668Z,31.51
2019-06-07T14:04:27.046Z,31.95
2019-06-07T14:05:27.279Z,31.61
2019-06-07T14:08:27.285Z,31.17
2019-06-07T14:09:27.600Z,31.93
2019-06-07T14:10:27.543Z,32.63
2019-06-07T14:11:27.765Z,33.19
2019-06-07T14:12:27.734Z,33.86
2019-06-07T14:14:27.462Z,33.83
2019-06-07T14:15:26.563Z,32.44
2019-06-07T14:16:26.481Z,31.93
2019-06-07T14:17:28.099Z,32.94
2019-06-07T14:18:26.526Z,33.70
2019-06-07T14:20:30.948Z,34.60
2019-06-07T14:21:26.725Z,35.03
2019-06-07T14:22:26.844Z,34.95
2019-06-07T14:23:42.405Z,33.40
2019-06-07T14:24:27.058Z,31.88
2019-06-07T14:26:27.311Z,33.46
2019-06-07T14:27:27.587Z,33.49
2019-06-07T14:28:28.558Z,33.17
2019-06-07T14:29:27.767Z,32.81
2019-06-07T14:30:28.247Z,31.26
2019-06-07T14:32:26.641Z,32.40
2019-06-07T14:33:28.228Z,32.64
2019-06-07T14:34:26.484Z,32.74
2019-06-07T14:35:26.752Z,32.42
2019-06-07T14:36:26.984Z,32.07
2019-06-07T14:38:27.333Z,32.48
2019-06-07T14:39:27.121Z,32.93
2019-06-07T14:40:27.956Z,33.44
2019-06-07T14:41:27.183Z,34.13
2019-06-07T14:42:27.097Z,34.04
2019-06-07T14:44:27.691Z,33.09
2019-06-07T14:45:27.719Z,32.65
2019-06-07T14:46:26.513Z,32.92
2019-06-07T14:47:27.853Z,31.33
2019-06-07T14:48:27.890Z,32.56
2019-06-07T14:50:26.515Z,33.37
2019-06-07T14:51:26.575Z,30.70
2019-06-07T14:52:26.523Z,30.44
2019-06-07T14:53:26.691Z,31.17
2019-06-07T14:54:27.426Z,31.55
2019-06-07T14:56:27.024Z,32.05
2019-06-07T14:57:26.938Z,32.54
2019-06-07T14:58:27.097Z,31.32
2019-06-07T14:59:26.562Z,29.34
2019-06-07T15:00:26.533Z,29.53
2019-06-07T15:02:26.562Z,31.78
2019-06-07T15:03:26.622Z,31.72
2019-06-07T15:04:26.549Z,31.89
2019-06-07T15:05:26.684Z,31.65
2019-06-07T15:08:26.603Z,31.55
2019-06-07T15:09:26.902Z,31.16
2019-06-07T15:10:26.751Z,31.52
2019-06-07T15:11:26.877Z,31.07
2019-06-07T15:14:27.319Z,32.30
2019-06-07T15:15:26.562Z,32.39
2019-06-07T15:16:27.386Z,32.31
2019-06-07T15:17:26.556Z,33.27
2019-06-07T15:20:27.781Z,32.99
2019-06-07T15:21:26.738Z,31.58
2019-06-07T15:22:27.892Z,31.38
2019-06-07T15:23:27.045Z,32.27
2019-06-07T15:26:26.613Z,31.07
2019-06-07T15:27:27.211Z,31.73
2019-06-07T15:28:27.662Z,30.51
2019-06-07T15:29:27.479Z,29.58
2019-06-07T15:32:28.146Z,32.02
2019-06-07T15:33:27.875Z,31.04
2019-06-07T15:34:28.856Z,31.52
2019-06-07T15:35:27.834Z,32.00
2019-06-07T15:38:26.622Z,31.84
2019-06-07T15:39:26.643Z,31.92
2019-06-07T15:40:26.589Z,30.80